LEBA Información de aeropuertos

Información de pistas
Pista 03 Longitud 4527 ft Ancho 148 ft
Elevación 293 ft Umbral 0 ft Rumbo 29
Pista 21 Longitud 4527 ft Ancho 148 ft
Elevación 297 ft Umbral 0 ft Rumbo 209
Frecuencias
Tipo CTAF Nombre CTAF Frequencia 118.3 MHZ
Radioayudas
Tipo VOR-DME Nombre Cordoba Frequencia 112400 KHZ
Tipo NDB Nombre Cordoba Frequencia 366 KHZ
Información meteorológica y NOTAM
ADDS - METARS form results

(1625 UTC 02 December 2021)
Data provider http://aviationweather.gov/metar/data/
 
METAR text: LEBA 021600Z 01005KT 320V060 CAVOK 15/M00 Q1015
Conditions at: LEBA (CORDOBA AIRPORT , ES) observed 1600 UTC 02 December 2021
Temperature: 15.0°C (59°F)
Dewpoint: 0.0°C (32°F) [RH = 36%]
Pressure (altimeter): 29.97 inches Hg (1015.0 mb)
Winds: from the N (10 degrees) at 6 MPH (5 knots; 2.6 m/s)
Visibility: 6 or more miles (10+ km)
Ceiling: ceiling and visibility are OK
Clouds: unknown
Weather: no significant weather observed at this time

METAR text: LEBA 021530Z 36008KT 300V030 CAVOK 15/01 Q1015
Conditions at: LEBA (CORDOBA AIRPORT , ES) observed 1530 UTC 02 December 2021
Temperature: 15.0°C (59°F)
Dewpoint: 1.0°C (34°F) [RH = 39%]
Pressure (altimeter): 29.97 inches Hg (1015.0 mb)
Winds: from the N (360 degrees) at 9 MPH (8 knots; 4.1 m/s)
Visibility: 6 or more miles (10+ km)
Ceiling: ceiling and visibility are OK
Clouds: unknown
Weather: no significant weather observed at this time

Forecast for: LEBA (CORDOBA AIRPORT , ES)
Text: TAF LEBA 021400Z 0215/0315 36010KT CAVOK TX16/0215Z TN01/0307Z
Forecast period: 1500 to 1600 UTC 02 December 2021
Forecast type: FROM: standard forecast or significant change
Winds: from the N (360 degrees) at 12 MPH (10 knots; 5.1 m/s)
Visibility: 6 or more miles (10+ km)
Ceiling: unknown
Clouds: missing
Weather: no significant weather forecast for this period
Text: BECMG 0216/0218 VRB02KT
Forecast period: 1600 UTC 02 December 2021 to 1500 UTC 03 December 2021
Forecast type: BECOMING: Conditions expected to become as follows by 1800 UTC 02 December 2021
Winds: variable direction winds at 2 MPH (2 knots; 1.0 m/s)
Visibility: 6 or more miles (10+ km)
Ceiling: unknown
Clouds: missing
Weather: no significant weather forecast for this period